• Join FlightAware (Why Join?)
  • Login
  • US Flag 
04:08PM EDT


 

Airport Tracker/Info


-or-


 

Live Flight TrackerFlight Track Log ✈ AWE3434 ✈ 23-Apr-2013 ✈ KPHL - KCMH

Flight Track Log - Related Links

Times and Time Zones

All times are in EDT time to prevent confusion due to time zone crossing. See the AWE3434 flight status page for this flight to view local times or setup timezone preferences in your user account.

Time Position Orientation Groundspeed Altitude Reporting Facility
EDT Latitude Longitude Course Direction KTS MPH feet Rate Location/Type
01:49PM 39.8775 -75.2189 270° West 146 168 900  Level FAA TRACON SMA TRACON (SMA)
01:50PM 39.8819 -75.2022 71° East 147 169 1,700 1,620 Climbing FAA TRACON SMA TRACON (SMA)
01:50PM 39.8889 -75.1803 68° East 177 204 2,000 1,380 Climbing FAA TRACON SMA TRACON (SMA)
01:51PM 39.9111 -75.1458 50° Northeast 235 270 3,100 1,680 Climbing FAA TRACON SMA TRACON (SMA)
01:51PM 39.9367 -75.1544 346° North 269 310 3,700 2,220 Climbing FAA TRACON SMA TRACON (SMA)
01:51PM 39.9519 -75.1772 311° West 275 316 4,600 2,700 Climbing FAA TRACON SMA TRACON (SMA)
01:52PM 39.9124 -75.6926 258° West  Level FlightAware Approximate
01:52PM 39.9544 -75.2072 276° West 279 321 5,500  Level FAA TRACON SMA TRACON (SMA)
01:52PM 39.9511 -75.2469 264° West 283 326 6,700 2,820 Climbing FAA TRACON SMA TRACON (SMA)
01:52PM 39.9494 -75.2692 264° West 280 322 7,400 3,000 Climbing FAA TRACON SMA TRACON (SMA)
01:53PM 39.9000 -75.8099 270° West  Level FlightAware Approximate
01:53PM 39.9467 -75.3094 265° West 278 320 8,700  Level FAA TRACON SMA TRACON (SMA)
01:53PM 39.9433 -75.3461 263° West 276 318 9,800 1,920 Climbing FAA TRACON SMA TRACON (SMA)
01:53PM 39.9408 -75.3769 264° West 280 322 10,000 300 Climbing FAA TRACON SMA TRACON (SMA)
01:54PM 39.9000 -75.9290 270° West  Level FlightAware Approximate
01:54PM 39.9383 -75.4117 265° West 316 364 10,000  Level FAA TRACON SMA TRACON (SMA)
01:54PM 39.9350 -75.4542 264° West 310 357 10,000  Level FAA TRACON SMA TRACON (SMA)
01:54PM 39.9325 -75.4872 264° West 306 352 10,000  Level FAA TRACON SMA TRACON (SMA)
01:55PM 39.9294 -75.5297 265° West 309 356 10,000 720 Level FAA TRACON SMA TRACON (SMA)
01:55PM 39.9264 -75.5653 264° West 310 357 10,500 2,100 Climbing FAA TRACON SMA TRACON (SMA)
01:55PM 39.9239 -75.6000 265° West 311 358 11,400 2,520 Climbing FAA TRACON SMA TRACON (SMA)
01:56PM 39.9203 -75.6386 263° West 311 358 12,200 2,400 Climbing FAA TRACON SMA TRACON (SMA)
01:56PM 39.9175 -75.6761 264° West 312 359 13,000 2,400 Climbing FAA TRACON SMA TRACON (SMA)
01:56PM 39.9169 -75.7125 269° West 313 360 13,800 2,520 Climbing FAA TRACON SMA TRACON (SMA)
01:57PM 39.9164 -75.7567 269° West 318 366 14,700 2,160 Climbing FAA TRACON SMA TRACON (SMA)
01:57PM 39.9158 -75.7925 269° West 320 368 15,300 1,680 Climbing FAA TRACON SMA TRACON (SMA)
01:57PM 39.9153 -75.8286 269° West 322 371 15,900 2,100 Climbing FAA TRACON SMA TRACON (SMA)
01:58PM 39.9139 -75.8717 268° West 324 373 16,700 2,220 Climbing FAA TRACON SMA TRACON (SMA)
01:58PM 39.9133 -75.9106 269° West 327 376 17,300 1,800 Climbing FAA TRACON SMA TRACON (SMA)
01:58PM 39.9139 -75.9469 271° West 329 379 17,900 1,500 Climbing FAA TRACON SMA TRACON (SMA)
01:59PM 39.9122 -75.9925 267° West 334 384 18,300 540 Climbing FAA TRACON SMA TRACON (SMA)
01:59PM 39.9122 -75.9925 360° North 334 384 18,300 1,560 Level FAA TRACON SMA TRACON (SMA)
02:01PM 39.9078 -76.2322 269° West 347 399 21,500 1,680 Climbing New York Center
02:02PM 39.9125 -76.3569 273° West 347 399 23,000 1,380 Climbing New York Center
02:03PM 39.9183 -76.4928 273° West 355 409 24,400 1,380 Climbing New York Center
02:04PM 39.9244 -76.6233 274° West 361 415 25,800 1,380 Climbing New York Center
02:05PM 39.9283 -76.7564 272° West 367 422 27,200 1,320 Climbing New York Center
02:06PM 39.9361 -76.8897 274° West 372 428 28,500 1,080 Climbing New York Center
02:07PM 39.9392 -77.0308 272° West 372 428 29,400 1,020 Climbing New York Center
02:08PM 39.9461 -77.1694 274° West 382 440 30,600 960 Climbing New York Center
02:09PM 39.9536 -77.3953 273° West 384 442 31,900 540 Climbing Cleveland Center
02:10PM 39.9597 -77.5414 273° West 394 453 32,000  Climbing Cleveland Center
02:11PM 39.9656 -77.6792 273° West 394 453 32,000  Level Cleveland Center
02:12PM 39.9686 -77.8011 272° West 372 428 32,000  Level Cleveland Center
02:13PM 39.9736 -77.9253 273° West 358 412 32,000  Level Cleveland Center
02:14PM 39.9742 -78.0472 270° West 348 400 32,000  Level Cleveland Center
02:15PM 39.9708 -78.1719 268° West 343 395 32,000  Level Cleveland Center
02:16PM 39.9608 -78.2969 264° West 349 402 32,000  Level Cleveland Center
02:17PM 39.9569 -78.4164 268° West 349 402 32,000  Level Cleveland Center
02:18PM 39.9531 -78.5383 268° West 349 402 32,000  Level Cleveland Center
02:19PM 39.9467 -78.6578 266° West 349 402 32,000  Level Cleveland Center
02:20PM 39.9422 -78.7742 267° West 344 396 32,000  Level Cleveland Center
02:21PM 39.9378 -78.8936 267° West 339 390 32,000  Level Cleveland Center
02:22PM 39.9375 -79.0100 270° West 332 382 32,000  Level Cleveland Center
02:23PM 39.9328 -79.1264 267° West 327 376 32,000  Level Cleveland Center
02:24PM 39.9258 -79.2403 265° West 327 376 32,000  Level Cleveland Center
02:25PM 39.9189 -79.3678 266° West 327 376 32,000  Level Cleveland Center
02:26PM 39.9158 -79.4842 268° West 327 376 32,000  Level Cleveland Center
02:27PM 39.9086 -79.6006 265° West 327 376 32,000 -120 Level Cleveland Center
02:28PM 39.9056 -79.7169 268° West 327 376 31,800 -720 Descending Cleveland Center
02:29PM 39.8981 -79.8336 265° West 327 376 30,600 -900 Descending Cleveland Center
02:30PM 39.8925 -79.9581 267° West 333 383 30,000 -300 Descending Cleveland Center
02:31PM 39.8867 -80.0825 267° West 338 389 30,000  Level Cleveland Center
02:32PM 39.8789 -80.2097 265° West 349 402 30,000  Level Cleveland Center
02:33PM 39.8731 -80.3342 267° West 349 402 30,000 -600 Level Cleveland Center
02:34PM 39.8650 -80.4586 265° West 349 402 28,900 -1,320 Descending Cleveland Center
02:35PM 39.8567 -80.5886 265° West 349 402 27,400 -1,560 Descending Cleveland Center
02:36PM 39.8503 -80.7156 266° West 349 402 25,800 -1,560 Descending Cleveland Center
02:37PM 39.8417 -80.8453 265° West 355 409 24,300 -1,560 Descending Cleveland Center
02:38PM 39.8331 -80.9778 265° West 360 414 22,700 -1,560 Descending Cleveland Center
02:39PM 39.8261 -81.1047 266° West 360 414 21,200 -1,500 Descending Cleveland Center
02:42PM 39.8050 -81.3833 264° West 335 386 17,800 -1,380 Descending Indianapolis Center
02:43PM 39.7989 -81.4917 266° West 317 365 16,600 -1,440 Descending Indianapolis Center
02:44PM 39.7894 -81.6219 265° West 309 356 14,900 -1,500 Descending Indianapolis Center
02:45PM 39.7836 -81.7286 266° West 299 344 13,500 -1,440 Descending Indianapolis Center
02:46PM 39.7756 -81.8342 264° West 293 337 12,000 -1,440 Descending Indianapolis Center
02:47PM 39.7692 -81.9375 265° West 281 323 10,700 -1,080 Descending Indianapolis Center
02:48PM 39.7625 -82.0386 265° West 282 325 9,900 -540 Descending Indianapolis Center
02:48PM 39.7586 -82.0775 263° West 279 321 10,000 -240 Climbing Indianapolis Center
02:49PM 39.7583 -82.1364 270° West 272 313 9,700 -1,380 Descending Indianapolis Center
02:50PM 39.7925 -82.2250 297° West 272 313 7,600 -1,860 Descending Indianapolis Center
02:51PM 39.8253 -82.3150 295° West 271 312 5,900 -840 Descending Indianapolis Center
02:52PM 39.8608 -82.4108 296° West 254 292 5,900 -420 Level Indianapolis Center
02:53PM 39.8903 -82.4894 296° West 243 280 5,100 -840 Descending Indianapolis Center
02:54PM 39.9200 -82.5747 294° West 218 251 4,200 -540 Descending Indianapolis Center
02:55PM 39.9450 -82.6425 296° West 220 253 4,000 -480 Descending Indianapolis Center
02:56PM 39.9697 -82.7106 295° West 212 244 3,300 -720 Descending Indianapolis Center